Time;durP1;ratioP1;P1;durP2;ratioP2;P2;SDS_P1;SDS_P2;PMS_P1;PMS_P2;Temp;Humidity;BMP_temperature;BMP_pressure;BME280_temperature;BME280_humidity;BME280_pressure;Samples;Min_cycle;Max_cycle;Signal;HPM_P1;HPM_P2
2022/02/05 00:08:17;;;;;;;15.77;2.10;;;4.10;99.90;;;;;;5017846;28;20046;-67
2022/02/05 00:43:11;;;;;;;11.48;1.63;;;4.10;99.90;;;;;;5021666;28;20472;-68
2022/02/05 00:45:41;;;;;;;15.27;2.50;;;4.10;99.90;;;;;;5020319;28;20418;-67
2022/02/05 00:48:08;;;;;;;13.90;2.33;;;4.00;99.90;;;;;;5021551;28;20397;-68
2022/02/05 00:50:37;;;;;;;16.33;2.00;;;4.00;99.90;;;;;;5019592;28;20551;-67
2022/02/05 00:53:10;;;;;;;10.73;1.60;;;4.00;99.90;;;;;;5023353;28;20254;-67
2022/02/05 00:55:40;;;;;;;15.15;2.58;;;4.00;99.90;;;;;;5021391;28;20052;-67
2022/02/05 00:58:07;;;;;;;8.75;1.70;;;3.90;99.90;;;;;;5018194;28;20042;-67
2022/02/05 01:00:36;;;;;;;14.15;2.03;;;4.00;99.90;;;;;;5022668;28;20166;-67
2022/02/05 01:03:03;;;;;;;10.45;2.13;;;4.10;99.90;;;;;;5021309;28;20048;-67
2022/02/05 01:05:29;;;;;;;17.30;2.25;;;4.10;99.90;;;;;;5017779;28;20131;-67
2022/02/05 01:07:59;;;;;;;11.95;2.28;;;4.10;99.90;;;;;;5019247;28;20091;-67
2022/02/05 01:10:26;;;;;;;13.05;2.42;;;4.10;99.90;;;;;;5022056;28;20029;-67
2022/02/05 01:12:56;;;;;;;11.95;1.98;;;4.20;99.90;;;;;;5021123;28;20049;-68
2022/02/05 01:15:26;;;;;;;14.70;2.20;;;4.20;99.90;;;;;;5018454;28;20046;-68
2022/02/05 01:17:58;;;;;;;13.82;2.08;;;4.20;99.90;;;;;;5018005;28;20441;-67
2022/02/05 01:23:12;;;;;;;15.35;2.40;;;4.30;99.90;;;;;;5021438;28;20048;-67
2022/02/05 01:25:44;;;;;;;9.02;2.13;;;4.30;99.90;;;;;;5002870;28;20063;-68
2022/02/05 01:28:15;;;;;;;13.88;2.50;;;4.40;99.90;;;;;;5020916;28;20048;-67
2022/02/05 01:30:46;;;;;;;15.15;2.38;;;4.30;99.90;;;;;;5017797;28;20049;-67
2022/02/05 01:36:21;;;;;;;15.45;2.30;;;4.40;99.90;;;;;;5016288;28;20108;-67
2022/02/05 01:52:41;;;;;;;15.80;2.58;;;4.70;99.90;;;;;;5018578;28;20037;-67
2022/02/05 01:58:10;;;;;;;15.20;2.33;;;4.70;99.90;;;;;;5023616;28;20041;-67
2022/02/05 02:17:19;;;;;;;12.68;2.00;;;4.60;99.90;;;;;;5017595;28;20393;-68
2022/02/05 02:22:09;;;;;;;9.68;1.65;;;4.50;99.90;;;;;;5019772;28;20048;-68
2022/02/05 02:24:48;;;;;;;17.52;1.90;;;4.60;99.90;;;;;;5018458;28;20083;-68
2022/02/05 02:30:09;;;;;;;17.75;2.45;;;4.50;99.90;;;;;;5021527;28;20053;-68
2022/02/05 02:32:39;;;;;;;9.48;1.80;;;4.50;99.90;;;;;;5018993;28;20040;-68
2022/02/05 02:35:11;;;;;;;12.35;1.92;;;4.50;99.90;;;;;;5003214;28;20091;-68
2022/02/05 02:38:03;;;;;;;16.50;2.47;;;4.50;99.90;;;;;;5018889;28;20141;-68
2022/02/05 02:40:38;;;;;;;14.43;1.90;;;4.50;99.90;;;;;;5021682;28;20081;-68
2022/02/05 02:43:11;;;;;;;16.30;2.15;;;4.50;99.90;;;;;;5015437;28;20049;-68
2022/02/05 02:45:37;;;;;;;14.27;2.42;;;4.40;99.90;;;;;;5016804;28;20049;-68
2022/02/05 02:48:03;;;;;;;18.02;2.35;;;4.40;99.90;;;;;;5022554;28;20651;-67
2022/02/05 02:50:33;;;;;;;16.35;2.53;;;4.40;99.90;;;;;;5022765;28;20057;-68
2022/02/05 02:58:32;;;;;;;14.20;2.00;;;4.30;99.90;;;;;;5022706;28;20180;-68
2022/02/05 03:01:00;;;;;;;15.15;2.38;;;4.40;99.90;;;;;;5021444;28;20099;-67
2022/02/05 03:03:27;;;;;;;19.77;2.90;;;4.30;99.90;;;;;;5021286;28;20564;-67
2022/02/05 03:05:53;;;;;;;19.10;2.72;;;4.30;99.90;;;;;;5023526;28;20050;-67
2022/02/05 03:08:19;;;;;;;12.07;2.53;;;4.30;99.90;;;;;;5024388;28;20045;-68
2022/02/05 03:10:44;;;;;;;17.15;2.35;;;4.30;99.90;;;;;;5025458;28;20044;-68
2022/02/05 03:13:10;;;;;;;13.18;2.60;;;4.20;99.90;;;;;;5020384;28;20050;-67
2022/02/05 03:15:40;;;;;;;14.43;2.05;;;4.30;99.90;;;;;;5022914;28;20464;-67
2022/02/05 03:18:14;;;;;;;18.15;2.22;;;4.20;99.90;;;;;;5019172;28;20034;-67
2022/02/05 03:20:40;;;;;;;;;;;4.30;99.90;;;;;;5026823;28;20046;-67
2022/02/05 03:23:06;;;;;;;11.75;2.03;;;4.20;99.90;;;;;;5028890;28;19923;-67
2022/02/05 03:25:33;;;;;;;15.25;2.45;;;4.20;99.90;;;;;;5024176;28;20439;-67
2022/02/05 03:28:00;;;;;;;14.75;2.10;;;4.20;99.90;;;;;;5025441;28;20072;-67
2022/02/05 03:30:27;;;;;;;14.20;2.30;;;4.20;99.90;;;;;;5024174;28;20042;-67
2022/02/05 03:32:53;;;;;;;17.60;2.83;;;4.20;99.90;;;;;;5023680;28;20638;-67
2022/02/05 03:35:18;;;;;;;14.82;2.60;;;4.10;99.90;;;;;;5020260;28;20041;-67
2022/02/05 03:37:44;;;;;;;14.00;2.20;;;4.10;99.90;;;;;;5017153;28;20451;-67
2022/02/05 03:40:11;;;;;;;14.27;2.10;;;4.20;99.90;;;;;;5023264;28;20482;-67
2022/02/05 03:42:36;;;;;;;14.73;3.10;;;4.10;99.90;;;;;;5016848;28;20145;-67
2022/02/05 03:45:08;;;;;;;19.35;2.40;;;4.10;99.90;;;;;;5022056;28;20133;-67
2022/02/05 03:47:34;;;;;;;15.82;2.67;;;4.10;99.90;;;;;;5024623;28;20505;-67
2022/02/05 03:50:01;;;;;;;16.33;4.32;;;4.00;99.90;;;;;;5020039;28;20050;-67
2022/02/05 03:52:26;;;;;;;18.27;2.63;;;3.90;99.90;;;;;;5018677;28;20034;-68
2022/02/05 03:54:52;;;;;;;16.90;2.92;;;3.90;99.90;;;;;;5020988;28;20068;-68
2022/02/05 03:57:18;;;;;;;18.65;2.67;;;3.90;99.90;;;;;;5019191;28;20044;-68
2022/02/05 03:59:43;;;;;;;19.52;3.58;;;3.90;99.90;;;;;;5023313;28;20046;-68
2022/02/05 04:02:09;;;;;;;17.35;2.50;;;3.90;99.90;;;;;;5023343;28;20450;-67
2022/02/05 04:04:35;;;;;;;19.10;3.33;;;4.00;99.90;;;;;;5022959;28;20572;-67
2022/02/05 04:07:02;;;;;;;17.42;2.92;;;4.00;99.90;;;;;;5014891;28;20100;-68
2022/02/05 04:09:35;;;;;;;14.88;1.95;;;4.00;99.90;;;;;;5004108;28;20483;-68
2022/02/05 04:17:30;;;;;;;18.52;2.40;;;4.10;99.90;;;;;;5020718;28;20049;-68
2022/02/05 04:19:55;;;;;;;12.82;2.13;;;4.00;99.90;;;;;;5019908;28;20089;-68
2022/02/05 04:22:21;;;;;;;19.52;3.40;;;4.00;99.90;;;;;;5019863;28;20049;-68
2022/02/05 04:24:48;;;;;;;17.35;2.22;;;4.00;99.90;;;;;;5021901;28;20088;-68
2022/02/05 04:27:14;;;;;;;12.93;2.58;;;4.00;99.90;;;;;;5021203;28;20045;-68
2022/02/05 04:29:39;;;;;;;18.70;2.20;;;4.00;99.90;;;;;;5036453;28;20046;-68
2022/02/05 04:32:07;;;;;;;19.08;3.25;;;4.00;99.90;;;;;;5023276;28;20071;-68
2022/02/05 04:34:33;;;;;;;18.77;2.30;;;4.00;99.90;;;;;;5025068;28;20042;-68
2022/02/05 04:37:01;;;;;;;14.18;2.78;;;4.00;99.90;;;;;;5017084;28;20045;-68
2022/02/05 04:39:27;;;;;;;14.80;2.58;;;4.00;99.90;;;;;;5023493;28;20081;-68
2022/02/05 04:42:00;;;;;;;20.73;2.75;;;4.00;99.90;;;;;;5024304;28;20083;-68
2022/02/05 04:45:03;;;;;;;11.95;2.10;;;4.10;99.90;;;;;;5020626;28;20030;-68
2022/02/05 04:47:53;;;;;;;18.35;3.08;;;4.10;99.90;;;;;;5021579;28;20140;-68
2022/02/05 04:50:37;;;;;;;15.82;2.58;;;4.20;99.90;;;;;;5019213;28;20057;-68
2022/02/05 05:04:04;;;;;;;18.70;3.10;;;4.20;99.90;;;;;;5020445;28;20048;-67
2022/02/05 05:06:09;;;;;;;15.23;2.33;;;4.20;99.90;;;;;;5019993;28;20203;-67
2022/02/05 05:11:37;;;;;;;19.80;2.78;;;4.10;99.90;;;;;;5002664;28;20064;-67
2022/02/05 05:21:39;;;;;;;18.08;2.50;;;3.70;99.90;;;;;;5022035;28;20042;-68
2022/02/05 05:24:05;;;;;;;15.85;2.63;;;3.70;99.90;;;;;;5018172;28;20077;-68
2022/02/05 05:26:31;;;;;;;15.38;2.10;;;3.70;99.90;;;;;;5020842;28;20073;-68
2022/02/05 05:28:56;;;;;;;18.02;2.45;;;3.70;99.90;;;;;;5021324;28;20116;-68
2022/02/05 05:31:22;;;;;;;13.65;2.28;;;3.70;99.90;;;;;;5000402;28;20053;-68
2022/02/05 05:33:48;;;;;;;13.88;3.00;;;3.60;99.90;;;;;;5020456;28;20096;-68
2022/02/05 05:36:13;;;;;;;16.25;2.30;;;3.80;99.90;;;;;;5021611;28;20408;-67
2022/02/05 05:38:39;;;;;;;16.13;2.85;;;3.70;99.90;;;;;;5020089;28;20125;-67
2022/02/05 05:41:05;;;;;;;14.93;2.55;;;3.70;99.90;;;;;;5002570;28;20065;-67
2022/02/05 05:43:50;;;;;;;14.00;2.10;;;3.70;99.90;;;;;;5022496;28;20045;-67
2022/02/05 05:46:19;;;;;;;18.13;2.22;;;3.70;99.90;;;;;;5017028;28;20100;-67
2022/02/05 05:51:16;;;;;;;16.55;2.70;;;3.70;99.90;;;;;;5017205;28;20124;-67
2022/02/05 05:53:42;;;;;;;24.08;3.72;;;3.60;99.90;;;;;;5024225;28;20124;-67
2022/02/05 05:56:08;;;;;;;17.25;2.75;;;3.60;99.90;;;;;;5014881;28;20088;-67
2022/02/05 05:58:34;;;;;;;13.35;2.00;;;3.70;99.90;;;;;;5019933;28;20046;-67
2022/02/05 06:01:00;;;;;;;15.35;2.45;;;3.70;99.90;;;;;;5020052;28;20045;-67
2022/02/05 06:03:26;;;;;;;16.45;2.05;;;3.70;99.90;;;;;;5018615;28;20044;-68
2022/02/05 06:05:51;;;;;;;16.70;2.15;;;3.70;99.90;;;;;;5017880;28;20137;-68
2022/02/05 06:08:18;;;;;;;16.60;2.45;;;3.70;99.90;;;;;;5021585;28;20052;-68
2022/02/05 06:10:44;;;;;;;17.67;2.63;;;3.70;99.90;;;;;;5016300;28;20047;-68
2022/02/05 06:13:11;;;;;;;13.27;2.25;;;3.70;99.90;;;;;;5014754;28;20054;-68
2022/02/05 06:15:41;;;;;;;12.93;2.10;;;3.70;99.90;;;;;;5019281;28;20037;-68
2022/02/05 06:18:08;;;;;;;18.80;2.72;;;3.50;99.90;;;;;;5020948;28;20107;-68
2022/02/05 06:20:35;;;;;;;16.75;1.90;;;3.60;99.90;;;;;;5023404;28;20056;-68
2022/02/05 06:23:01;;;;;;;10.70;1.83;;;3.50;99.90;;;;;;5028057;28;20087;-68
2022/02/05 06:25:26;;;;;;;12.70;1.70;;;3.50;99.90;;;;;;5023466;28;20029;-68
2022/02/05 06:27:53;;;;;;;15.85;2.78;;;3.50;99.90;;;;;;5020828;28;20041;-68
2022/02/05 06:30:18;;;;;;;21.77;2.78;;;3.50;99.90;;;;;;5018348;28;20487;-68
2022/02/05 06:32:44;;;;;;;17.92;2.17;;;3.50;99.90;;;;;;5023810;28;20054;-68
2022/02/05 06:35:11;;;;;;;12.80;2.67;;;3.50;99.90;;;;;;5024179;28;20103;-68
2022/02/05 06:37:37;;;;;;;12.85;2.00;;;3.50;99.90;;;;;;5024122;28;20298;-68
2022/02/05 06:40:05;;;;;;;17.30;2.45;;;3.40;99.90;;;;;;5025909;28;20052;-68
2022/02/05 06:42:31;;;;;;;17.35;2.58;;;3.50;99.90;;;;;;5021459;28;20041;-68
2022/02/05 06:44:57;;;;;;;14.38;1.95;;;3.50;99.90;;;;;;5029578;28;20049;-68
2022/02/05 06:47:22;;;;;;;15.43;3.05;;;3.50;99.90;;;;;;5019316;28;20046;-68
2022/02/05 06:49:48;;;;;;;17.15;2.60;;;3.60;99.90;;;;;;5023934;28;20133;-68
2022/02/05 06:52:14;;;;;;;15.60;2.55;;;3.60;99.90;;;;;;5023814;28;20045;-68
2022/02/05 06:54:39;;;;;;;14.30;2.00;;;3.60;99.90;;;;;;5021543;28;20037;-68
2022/02/05 06:57:05;;;;;;;12.98;2.17;;;3.50;99.90;;;;;;5020082;28;20554;-68
2022/02/05 06:59:31;;;;;;;16.30;2.95;;;3.50;99.90;;;;;;5021433;28;20062;-68
2022/02/05 07:01:57;;;;;;;19.27;2.75;;;3.50;99.90;;;;;;5019363;28;20542;-68
2022/02/05 07:04:25;;;;;;;14.32;2.35;;;3.50;99.90;;;;;;5019374;28;20061;-68
2022/02/05 07:06:54;;;;;;;17.98;2.47;;;3.50;99.90;;;;;;5022201;28;20053;-68
2022/02/05 07:09:22;;;;;;;12.88;1.90;;;3.50;99.90;;;;;;5017897;28;20038;-68
2022/02/05 07:11:48;;;;;;;19.88;2.42;;;3.50;99.90;;;;;;5023564;28;20101;-68
2022/02/05 07:14:16;;;;;;;15.02;2.53;;;3.40;99.90;;;;;;5020523;28;20522;-68
2022/02/05 07:16:51;;;;;;;15.48;2.40;;;3.40;99.90;;;;;;5020264;28;20159;-68
2022/02/05 07:21:58;;;;;;;16.27;2.30;;;3.40;99.90;;;;;;5025042;28;20175;-68
2022/02/05 07:24:50;;;;;;;15.40;2.25;;;3.40;99.90;;;;;;5019845;28;20557;-68
2022/02/05 07:29:59;;;;;;;16.25;2.17;;;3.30;99.90;;;;;;5023058;28;20160;-68
2022/02/05 07:32:25;;;;;;;14.23;2.00;;;3.20;99.90;;;;;;5020898;28;20054;-68
2022/02/05 07:34:51;;;;;;;14.98;2.40;;;3.30;99.90;;;;;;5021823;28;20145;-68
2022/02/05 07:37:17;;;;;;;14.93;2.45;;;3.20;99.90;;;;;;5023496;28;20045;-68
2022/02/05 07:39:47;;;;;;;14.00;2.47;;;3.20;99.90;;;;;;5024049;28;20415;-68
2022/02/05 07:42:14;;;;;;;13.10;2.30;;;3.20;99.90;;;;;;5022421;28;20065;-68
2022/02/05 07:44:40;;;;;;;16.40;2.22;;;3.20;99.90;;;;;;5024772;28;20045;-68
2022/02/05 07:47:06;;;;;;;15.32;2.35;;;3.20;99.90;;;;;;5021546;28;20202;-68
2022/02/05 07:49:38;;;;;;;18.60;2.72;;;3.30;99.90;;;;;;5018519;28;20446;-68
2022/02/05 07:52:05;;;;;;;25.48;3.30;;;3.40;99.90;;;;;;5017998;28;20505;-68
2022/02/05 07:54:30;;;;;;;14.82;2.15;;;3.50;99.90;;;;;;5025428;28;20033;-68
2022/02/05 07:56:56;;;;;;;15.38;2.20;;;3.70;99.90;;;;;;5021559;28;20049;-68
2022/02/05 07:59:22;;;;;;;13.52;2.33;;;4.00;99.90;;;;;;5025661;28;20085;-68
2022/02/05 08:01:49;;;;;;;18.80;2.85;;;4.30;99.90;;;;;;5004801;28;20069;-68
2022/02/05 08:04:15;;;;;;;17.17;3.15;;;4.70;99.90;;;;;;5010845;28;20494;-69
2022/02/05 08:06:42;;;;;;;16.73;2.58;;;5.10;99.90;;;;;;5021172;28;20064;-68
2022/02/05 08:09:17;;;;;;;16.48;2.15;;;5.50;99.90;;;;;;5022562;28;20085;-68
2022/02/05 08:11:52;;;;;;;16.33;2.45;;;5.80;99.90;;;;;;5021346;28;20049;-68
2022/02/05 08:14:19;;;;;;;16.20;1.95;;;6.20;99.90;;;;;;5018501;28;20037;-68
2022/02/05 08:16:50;;;;;;;14.18;2.28;;;6.50;99.90;;;;;;5021453;28;20104;-68
2022/02/05 08:19:16;;;;;;;16.02;2.70;;;6.80;99.90;;;;;;5024063;28;20116;-68
2022/02/05 08:21:42;;;;;;;17.40;3.15;;;7.10;99.90;;;;;;5022180;28;20494;-68
2022/02/05 08:24:08;;;;;;;18.40;2.80;;;7.20;99.90;;;;;;5007095;28;20071;-68
2022/02/05 08:26:35;;;;;;;17.35;2.60;;;7.00;99.90;;;;;;5024178;28;20718;-69
2022/02/05 08:29:01;;;;;;;18.08;3.28;;;7.10;99.90;;;;;;5003073;28;20088;-69
2022/02/05 08:31:27;;;;;;;18.80;2.75;;;7.40;99.90;;;;;;5016502;28;20057;-69
2022/02/05 08:33:53;;;;;;;14.65;2.35;;;7.60;99.90;;;;;;5003105;28;20073;-69
2022/02/05 08:36:22;;;;;;;19.17;3.40;;;7.60;99.90;;;;;;5020655;28;20045;-68
2022/02/05 08:38:51;;;;;;;17.20;3.08;;;7.30;99.90;;;;;;5019178;28;20088;-68
2022/02/05 08:41:17;;;;;;;24.13;10.75;;;6.90;99.90;;;;;;5018870;28;20113;-69
2022/02/05 08:43:43;;;;;;;18.20;2.92;;;6.70;99.90;;;;;;5017881;28;20337;-69
2022/02/05 08:46:09;;;;;;;14.40;3.35;;;6.60;99.90;;;;;;5020740;28;20053;-68
2022/02/05 08:48:35;;;;;;;14.43;2.33;;;7.10;99.90;;;;;;5020151;28;20055;-68
2022/02/05 08:51:01;;;;;;;21.67;3.25;;;7.60;99.90;;;;;;5024758;28;20045;-69
2022/02/05 08:53:27;;;;;;;14.32;2.05;;;8.20;99.90;;;;;;5021056;28;20509;-69
2022/02/05 08:55:53;;;;;;;20.88;2.80;;;8.60;99.90;;;;;;5017123;28;20129;-69
2022/02/05 08:58:20;;;;;;;13.90;2.72;;;8.80;99.90;;;;;;5018216;28;20108;-69
2022/02/05 09:01:08;;;;;;;15.63;2.60;;;9.10;99.90;;;;;;5018156;28;20130;-69
2022/02/05 09:03:46;;;;;;;15.55;2.90;;;9.50;99.90;;;;;;5016144;28;20053;-69
2022/02/05 09:06:11;;;;;;;15.35;3.53;;;9.40;99.90;;;;;;5018594;28;20049;-69
2022/02/05 09:08:45;;;;;;;14.80;2.92;;;9.10;99.90;;;;;;5003757;28;20057;-69
2022/02/05 09:16:06;;;;;;;17.10;2.92;;;8.00;99.90;;;;;;5017261;28;20167;-69
2022/02/05 09:18:34;;;;;;;18.42;3.22;;;7.50;99.90;;;;;;5036663;28;20044;-69
2022/02/05 09:21:00;;;;;;;13.52;2.72;;;7.00;99.90;;;;;;5022822;28;20375;-69
2022/02/05 09:23:26;;;;;;;17.23;2.55;;;6.80;99.90;;;;;;5018891;28;20041;-69
2022/02/05 09:25:52;;;;;;;17.45;3.08;;;6.50;99.90;;;;;;5020961;28;20050;-69
2022/02/05 09:28:18;;;;;;;15.05;2.88;;;6.40;99.90;;;;;;5017550;28;20038;-69
2022/02/05 09:33:37;;;;;;;17.67;4.05;;;6.30;99.90;;;;;;5023537;28;20045;-69
2022/02/05 09:36:04;;;;;;;15.38;2.60;;;6.20;99.90;;;;;;5021625;28;20038;-69
2022/02/05 09:38:30;;;;;;;21.98;2.97;;;6.10;99.90;;;;;;5018468;28;20095;-69
2022/02/05 09:40:59;;;;;;;16.20;2.85;;;6.10;99.90;;;;;;5020065;28;20053;-69
2022/02/05 09:43:26;;;;;;;17.15;3.00;;;6.10;99.90;;;;;;5008089;28;20061;-69
2022/02/05 09:45:53;;;;;;;15.30;3.08;;;6.20;99.90;;;;;;5019760;28;20058;-69
2022/02/05 09:48:19;;;;;;;16.70;3.10;;;6.30;99.90;;;;;;5023801;28;20044;-69
2022/02/05 09:50:46;;;;;;;21.10;3.20;;;6.40;99.90;;;;;;5021940;28;20048;-69
2022/02/05 09:53:16;;;;;;;19.42;3.50;;;6.30;99.90;;;;;;5023557;28;20139;-69
2022/02/05 09:55:44;;;;;;;16.92;3.15;;;6.40;99.90;;;;;;5020370;28;20124;-69
2022/02/05 09:58:10;;;;;;;20.33;3.85;;;6.40;99.90;;;;;;5017593;28;20095;-69
2022/02/05 10:00:37;;;;;;;11.32;2.30;;;6.40;99.90;;;;;;5019840;28;20464;-69
2022/02/05 10:03:03;;;;;;;19.15;2.72;;;6.50;99.90;;;;;;5015707;28;20589;-69
2022/02/05 10:05:31;;;;;;;15.65;3.17;;;6.70;99.90;;;;;;5020330;28;20088;-69
2022/02/05 10:08:08;;;;;;;20.60;3.63;;;6.80;99.90;;;;;;5015249;28;20056;-69
2022/02/05 10:10:42;;;;;;;16.02;2.63;;;6.80;99.90;;;;;;5020198;28;20054;-69
2022/02/05 10:13:08;;;;;;;19.20;3.10;;;6.90;99.90;;;;;;5020492;28;20042;-69
2022/02/05 10:15:36;;;;;;;14.73;2.70;;;7.10;99.90;;;;;;5019172;28;20140;-69
2022/02/05 10:18:03;;;;;;;20.20;3.33;;;7.10;99.90;;;;;;5021023;28;20045;-69
2022/02/05 10:20:29;;;;;;;17.58;3.22;;;7.00;99.90;;;;;;5017437;28;20062;-69
2022/02/05 10:22:57;;;;;;;16.67;2.72;;;7.00;99.90;;;;;;4990377;28;20033;-69
2022/02/05 10:25:28;;;;;;;18.45;3.08;;;6.90;99.90;;;;;;5018909;28;20143;-69
2022/02/05 10:27:54;;;;;;;17.85;3.22;;;6.90;99.90;;;;;;5016484;28;20054;-69
2022/02/05 10:30:28;;;;;;;16.45;3.03;;;6.90;99.90;;;;;;5013710;28;20143;-69
2022/02/05 10:33:09;;;;;;;16.25;3.10;;;6.90;99.90;;;;;;5016814;28;20062;-69
2022/02/05 10:36:25;;;;;;;16.02;3.90;;;6.90;99.90;;;;;;5020171;28;20521;-69
2022/02/05 10:39:12;;;;;;;19.08;3.10;;;6.90;99.90;;;;;;5017529;28;20386;-69
2022/02/05 10:44:27;;;;;;;15.33;2.67;;;6.80;99.90;;;;;;5017781;28;20099;-69
2022/02/05 10:46:57;;;;;;;12.50;2.95;;;6.70;99.90;;;;;;5018841;28;20053;-70
2022/02/05 10:49:49;;;;;;;12.55;2.63;;;6.60;99.90;;;;;;5023398;28;20502;-70
2022/02/05 10:52:24;;;;;;;11.20;2.13;;;6.60;99.90;;;;;;5017253;28;20041;-70
2022/02/05 10:54:59;;;;;;;13.15;2.30;;;6.60;99.90;;;;;;5016927;28;20050;-70
2022/02/05 10:57:33;;;;;;;10.98;2.65;;;6.50;99.90;;;;;;5003722;28;20049;-69
2022/02/05 11:05:41;;;;;;;12.82;1.95;;;6.50;99.90;;;;;;5018696;28;20178;-70
2022/02/05 11:08:08;;;;;;;15.35;2.03;;;6.60;99.90;;;;;;5023725;28;20054;-70
2022/02/05 11:18:54;;;;;;;12.88;2.08;;;7.10;99.90;;;;;;5026937;28;20442;-70
2022/02/05 11:21:21;;;;;;;11.77;2.67;;;7.20;99.90;;;;;;5023880;28;20046;-70
2022/02/05 11:23:53;;;;;;;14.88;3.42;;;7.30;99.90;;;;;;5024736;28;20454;-70
2022/02/05 11:26:20;;;;;;;8.77;1.63;;;7.40;99.90;;;;;;5018402;28;20049;-70
2022/02/05 11:28:55;;;;;;;13.95;2.10;;;7.50;99.90;;;;;;5026394;28;20045;-69
2022/02/05 11:31:32;;;;;;;13.20;2.20;;;7.50;99.90;;;;;;5019836;28;20119;-69
2022/02/05 11:34:18;;;;;;;13.35;1.85;;;7.40;99.90;;;;;;5026222;28;20037;-69
2022/02/05 11:37:10;;;;;;;9.48;2.10;;;7.40;99.90;;;;;;5019706;28;20057;-69
2022/02/05 11:39:47;;;;;;;13.38;2.22;;;7.30;99.90;;;;;;5022580;28;20041;-69
2022/02/05 11:42:32;;;;;;;13.63;2.88;;;7.30;99.90;;;;;;5026371;28;20053;-70
2022/02/05 11:45:27;;;;;;;16.10;3.00;;;7.20;99.90;;;;;;5021984;28;20050;-70
2022/02/05 11:47:58;;;;;;;14.70;3.05;;;7.20;99.90;;;;;;5036078;28;20459;-68
2022/02/05 11:50:25;;;;;;;14.32;3.53;;;7.10;99.90;;;;;;5021592;28;20052;-69
2022/02/05 11:52:51;;;;;;;10.15;2.33;;;7.10;99.90;;;;;;5022502;28;20045;-69
2022/02/05 11:55:31;;;;;;;11.07;2.92;;;7.20;99.90;;;;;;5021744;28;20041;-70
2022/02/05 11:58:00;;;;;;;13.82;2.80;;;7.20;99.90;;;;;;5018721;28;20041;-70
2022/02/05 12:00:38;;;;;;;11.25;2.60;;;7.20;99.90;;;;;;5016647;28;20119;-70
2022/02/05 12:03:28;;;;;;;17.95;2.40;;;7.30;99.90;;;;;;5022053;28;20058;-70
2022/02/05 12:06:00;;;;;;;9.88;2.20;;;7.40;99.90;;;;;;5041766;28;20060;-70
2022/02/05 12:08:34;;;;;;;12.20;2.42;;;7.40;99.90;;;;;;5024988;28;20454;-70
2022/02/05 12:11:03;;;;;;;14.43;2.05;;;7.50;99.90;;;;;;5018380;28;20493;-70
2022/02/05 12:13:38;;;;;;;15.20;2.53;;;7.40;99.90;;;;;;5016178;28;20125;-70
2022/02/05 12:16:05;;;;;;;;;;;7.50;99.90;;;;;;5024016;28;20041;-70
2022/02/05 12:18:51;;;;;;;8.63;2.13;;;7.50;99.90;;;;;;5018893;28;20384;-70
2022/02/05 12:21:27;;;;;;;10.05;2.17;;;7.50;99.90;;;;;;5021890;28;20044;-70
2022/02/05 12:26:20;;;;;;;10.57;2.05;;;7.50;99.90;;;;;;5021657;28;20137;-70
2022/02/05 12:28:50;;;;;;;12.73;2.70;;;7.50;99.90;;;;;;5021986;28;20509;-71
2022/02/05 12:31:21;;;;;;;13.18;2.33;;;7.50;99.90;;;;;;5020754;28;20551;-70
2022/02/05 12:33:47;;;;;;;12.73;2.13;;;7.70;99.90;;;;;;5006177;28;20049;-70
2022/02/05 12:36:30;;;;;;;11.30;2.17;;;7.70;99.90;;;;;;5024142;28;20040;-70
2022/02/05 12:38:57;;;;;;;12.10;2.42;;;7.70;99.90;;;;;;5019116;28;20049;-70
2022/02/05 12:41:25;;;;;;;13.55;2.65;;;7.70;99.90;;;;;;5022701;28;20435;-70
2022/02/05 12:43:53;;;;;;;16.27;2.28;;;7.70;99.90;;;;;;5016794;28;20150;-70
2022/02/05 12:46:21;;;;;;;13.20;2.60;;;7.70;99.90;;;;;;5016573;28;20248;-70
2022/02/05 12:48:52;;;;;;;13.73;2.45;;;7.70;99.90;;;;;;5023572;28;20072;-70
2022/02/05 12:51:18;;;;;;;12.38;2.20;;;7.70;99.90;;;;;;5020854;28;20402;-70
2022/02/05 12:53:44;;;;;;;16.27;2.72;;;7.70;99.90;;;;;;5021508;28;20034;-70
2022/02/05 12:56:37;;;;;;;11.57;2.22;;;7.60;99.90;;;;;;5019444;28;20037;-70
2022/02/05 12:59:08;;;;;;;12.70;2.50;;;7.60;99.90;;;;;;5024593;28;20514;-70
2022/02/05 13:01:37;;;;;;;11.82;2.70;;;7.60;99.90;;;;;;5020271;28;20459;-70
2022/02/05 13:04:18;;;;;;;15.63;2.50;;;7.50;99.90;;;;;;5018966;28;20045;-70
2022/02/05 13:06:44;;;;;;;10.73;1.85;;;7.60;99.90;;;;;;5025004;28;20057;-70
2022/02/05 13:09:20;;;;;;;12.18;1.90;;;7.70;99.90;;;;;;5018239;28;20135;-70
2022/02/05 13:11:52;;;;;;;9.70;1.40;;;7.70;99.90;;;;;;5022621;28;20050;-70
2022/02/05 13:14:18;;;;;;;13.68;2.45;;;7.80;99.90;;;;;;5024256;28;20053;-70
2022/02/05 13:16:46;;;;;;;11.52;2.03;;;7.80;99.90;;;;;;5019292;28;20241;-70
2022/02/05 13:19:25;;;;;;;12.07;1.88;;;7.80;99.90;;;;;;5022266;28;20041;-70
2022/02/05 13:35:58;;;;;;;11.23;2.00;;;7.90;99.90;;;;;;5021510;28;20528;-70
2022/02/05 13:38:24;;;;;;;9.30;1.80;;;7.90;99.90;;;;;;5016701;28;20524;-70
2022/02/05 13:41:04;;;;;;;10.77;1.95;;;8.10;99.90;;;;;;5006165;28;20045;-70
2022/02/05 13:43:41;;;;;;;8.80;1.70;;;8.40;99.10;;;;;;5019271;28;20037;-71
2022/02/05 13:46:19;;;;;;;6.82;1.20;;;8.60;98.50;;;;;;5014831;28;20494;-69
2022/02/05 13:48:44;;;;;;;9.90;1.58;;;8.70;97.20;;;;;;5014554;28;20056;-70
2022/02/05 13:51:10;;;;;;;16.02;1.95;;;8.40;97.40;;;;;;5019344;28;20068;-71
2022/02/05 13:53:55;;;;;;;12.90;1.85;;;8.20;97.80;;;;;;5001564;28;20585;-70
2022/02/05 13:56:21;;;;;;;;;;;8.10;97.70;;;;;;5004158;28;20041;-70
2022/02/05 13:58:47;;;;;;;10.68;1.75;;;8.20;97.90;;;;;;5020552;28;19917;-70
2022/02/05 14:01:27;;;;;;;7.93;1.33;;;8.20;96.70;;;;;;5014398;28;20135;-70
2022/02/05 14:03:53;;;;;;;8.75;1.70;;;8.10;97.20;;;;;;5018371;28;20517;-71
2022/02/05 14:06:19;;;;;;;11.30;2.10;;;8.10;97.40;;;;;;5013937;28;20042;-71
2022/02/05 14:08:45;;;;;;;13.38;1.80;;;8.10;97.20;;;;;;5018922;28;20513;-70
2022/02/05 14:11:14;;;;;;;9.07;2.25;;;8.10;97.40;;;;;;5017186;28;20043;-71
2022/02/05 14:13:41;;;;;;;11.90;2.05;;;7.80;97.80;;;;;;5019294;28;20068;-70
2022/02/05 14:16:08;;;;;;;8.73;1.33;;;7.90;98.10;;;;;;5017351;28;20053;-70
2022/02/05 14:18:54;;;;;;;8.45;1.60;;;7.80;97.90;;;;;;5016275;28;20034;-70
2022/02/05 14:21:45;;;;;;;6.43;1.40;;;7.70;98.20;;;;;;5017890;28;20061;-70
2022/02/05 14:24:26;;;;;;;9.60;1.42;;;7.80;97.90;;;;;;5020721;28;20041;-70
2022/02/05 14:27:05;;;;;;;8.70;1.20;;;7.80;97.30;;;;;;5033923;28;20171;-70
2022/02/05 14:32:21;;;;;;;7.47;1.77;;;7.80;97.40;;;;;;5014079;28;20397;-70
2022/02/05 14:40:54;;;;;;;10.50;1.42;;;7.70;98.10;;;;;;5020303;28;20041;-71
2022/02/05 14:43:00;;;;;;;9.07;1.40;;;7.70;98.20;;;;;;5017768;28;20057;-71
2022/02/05 14:45:26;;;;;;;11.38;1.70;;;7.60;98.50;;;;;;5024092;28;20064;-71
2022/02/05 14:47:52;;;;;;;12.68;1.83;;;7.60;98.80;;;;;;5010015;28;20050;-71
2022/02/05 14:50:17;;;;;;;9.07;1.70;;;7.60;98.90;;;;;;5021170;28;20409;-71
2022/02/05 14:52:43;;;;;;;11.20;1.48;;;7.60;99.10;;;;;;5023909;28;20042;-71
2022/02/05 14:55:09;;;;;;;10.10;1.58;;;7.60;99.20;;;;;;5003668;28;20708;-71
2022/02/05 14:57:34;;;;;;;9.68;1.95;;;7.50;99.30;;;;;;5007252;28;20037;-71
2022/02/05 15:00:03;;;;;;;8.38;2.13;;;7.50;99.40;;;;;;5018846;28;20124;-71
2022/02/05 15:02:28;;;;;;;9.48;1.60;;;7.50;99.50;;;;;;5027493;28;20088;-71
2022/02/05 15:04:54;;;;;;;8.90;1.60;;;7.50;99.60;;;;;;5021127;28;20092;-71
2022/02/05 15:07:20;;;;;;;8.35;1.58;;;7.50;99.50;;;;;;5023882;28;20553;-71
2022/02/05 15:09:46;;;;;;;7.10;1.60;;;7.40;99.50;;;;;;5023634;28;20054;-71
2022/02/05 15:12:12;;;;;;;8.90;1.35;;;7.40;99.60;;;;;;5025243;28;20124;-71
2022/02/05 15:14:38;;;;;;;12.20;1.75;;;7.40;99.60;;;;;;5017967;28;20455;-71
2022/02/05 15:17:05;;;;;;;7.78;1.45;;;7.40;99.80;;;;;;5020369;28;20041;-71
2022/02/05 15:19:31;;;;;;;8.93;1.67;;;7.40;99.90;;;;;;5014691;28;20413;-71
2022/02/05 15:21:57;;;;;;;12.45;1.95;;;7.40;99.90;;;;;;5017866;28;20049;-71
2022/02/05 15:24:23;;;;;;;11.52;1.65;;;7.40;99.90;;;;;;5019928;28;20191;-71
2022/02/05 15:26:50;;;;;;;9.38;1.95;;;7.40;99.70;;;;;;5022783;28;20053;-71
2022/02/05 15:29:16;;;;;;;7.38;1.70;;;7.40;99.70;;;;;;5020383;28;20054;-71
2022/02/05 15:31:43;;;;;;;9.18;1.30;;;7.40;99.70;;;;;;5020434;28;20106;-70
2022/02/05 15:34:09;;;;;;;6.68;1.40;;;7.40;99.50;;;;;;5021187;28;20048;-70
2022/02/05 15:44:33;;;;;;;10.90;2.30;;;7.20;99.80;;;;;;5034098;28;20045;-70
2022/02/05 15:46:59;;;;;;;9.63;1.90;;;7.10;99.90;;;;;;5020624;28;20057;-70
2022/02/05 15:49:24;;;;;;;9.20;2.38;;;7.10;99.90;;;;;;5021390;28;20063;-70
2022/02/05 15:51:50;;;;;;;8.35;1.15;;;7.10;99.90;;;;;;5019639;28;20480;-70
2022/02/05 15:54:16;;;;;;;8.38;1.73;;;7.10;99.90;;;;;;5004296;28;20049;-70
2022/02/05 15:56:55;;;;;;;12.43;2.22;;;7.00;99.90;;;;;;5019324;28;20050;-70
2022/02/05 15:59:26;;;;;;;9.82;1.60;;;7.00;99.90;;;;;;5024997;28;20100;-69
2022/02/05 16:01:51;;;;;;;9.18;2.08;;;7.00;99.90;;;;;;5016642;28;20050;-69